Washington, District of Columbia
Current Conditions -  °F | °C
As of 8:12 PM on Sunday 23 Nov 2014 (Local Time) from KDCA Reporting Station
Light Rain Light Rain  
Wind Chill: 55°   Ceiling: 2300
Heat Index: 55°   Visibility: 10mi
Dew Point: 46°   Wind: 8mph
Humidity: 72%   Direction: 160°SSE
Pressure: 30"   Gusts: NA
Location:  38.89°N, 77.03°W
Report Text: KDCA 240112Z 16007KT 10SM -RA BKN023 BKN028 OVC046 13/08 A3000 RMK AO2 RAB0059 P0000
Loading
Personal Weather Stations






























Interactive Weather Map New forecast layout! Learn more

10-Day Weather Forecast

Advertisements
Track Severe Weather on mobile